ENGLEBRIGHT (USACE) (ENG)

Elevation: 551' · YUBA R basin · Operator: US Army Corps of Engineers

Provisional data, subject to change.
Query executed Thursday at 22:39:14   clock

Select a sensor type for a plot of data.
Note: Reservoir Flows are daily averages.

Earlier

Date RES ELE    STORAGE    RES CHG    OUTFLOW    INFLOW    PPT INC   
 FEET   AF   AF   CFS   CFS   INCHES  
08/19/2014 523.23 66940 -1126 -- 759 0.00
08/20/2014 522.01 65985 -955 -- 796 0.00
08/21/2014 521.54 65619 -366 -- 1031 0.00
08/22/2014 521.10 65278 -341 -- 1030 0.00
08/23/2014 520.01 64440 -838 -- 784 0.00
08/24/2014 519.69 64196 -244 -- 1078 0.00
08/25/2014 519.63 64150 -46 -- 1175 0.00
08/26/2014 520.92 65139 989 -- 1694 0.00
08/27/2014 522.46 66336 1197 -- 1848 0.00
08/28/2014 522.38 66273 -- -- 1066 0.00
08/29/2014 521.34 65464 -809 -- 663 0.00
08/30/2014 520.01 64440 -1024 -- 466 0.00
08/31/2014 519.34 63929 -511 -- 625 0.00
09/01/2014 519.24 63853 -76 -- 1061 0.00
09/02/2014 518.91 63603 -250 -- 1115 0.00
09/03/2014 519.77 64257 654 -- 1503 0.00
09/04/2014 521.13 65302 1045 -- 1698 0.00
09/05/2014 522.14 66086 784 -- 1569 0.00
09/06/2014 521.62 65681 -405 -- 958 0.00
09/07/2014 521.38 65495 -186 -- 1060 0.00
09/08/2014 520.45 64778 -717 -- 790 0.00
09/09/2014 520.55 64854 76 -- 1197 0.00
09/10/2014 521.23 65379 525 -- 1428 0.00
09/11/2014 521.85 65860 481 -- 1438 0.00
09/12/2014 523.28 66980 1120 -- 1805 0.00
09/13/2014 523.15 66877 -103 -- 1182 0.00
09/14/2014 522.69 66516 -361 -- 1035 0.00
09/15/2014 524.06 67597 1081 -- 1762 0.00
09/16/2014 524.80 68186 589 -- 1466 0.00
09/17/2014 524.72 68122 -64 -- -32 0.00
09/18/2014 -- -- -- -- -- --

Later | Latest

Warning! This data is preliminary and subject to revision.

Download Data Now Download Data Now | Show ENG Map | Plot ENG Data | 1 Month ENG Data | Real-Time ENG Data | ENG Info